Time;durP1;ratioP1;P1;durP2;ratioP2;P2;SDS_P1;SDS_P2;PMS_P1;PMS_P2;Temp;Humidity;BMP_temperature;BMP_pressure;BME280_temperature;BME280_humidity;BME280_pressure;Samples;Min_cycle;Max_cycle;Signal;HPM_P1;HPM_P2
2023/08/22 00:00:00;;;;;;;20.90;7.13;;;;;;;;;;5030306;28;20053;-38
2023/08/22 00:02:27;;;;;;;19.33;7.45;;;;;;;;;;5031443;28;20029;-35
2023/08/22 00:04:54;;;;;;;26.17;7.97;;;;;;;;;;5032475;28;20022;-35
2023/08/22 00:07:22;;;;;;;29.88;8.32;;;;;;;;;;5026977;28;20557;-34
2023/08/22 00:09:49;;;;;;;34.00;8.82;;;;;;;;;;5022622;28;20550;-35
2023/08/22 00:12:18;;;;;;;24.67;8.00;;;;;;;;;;5023047;28;20029;-35
2023/08/22 00:14:45;;;;;;;28.13;8.10;;;;;;;;;;5047816;28;20027;-35
2023/08/22 00:17:12;;;;;;;25.58;8.10;;;;;;;;;;5023002;28;20065;-35
2023/08/22 00:19:40;;;;;;;25.90;7.70;;;;;;;;;;5024365;28;20029;-35
2023/08/22 00:22:08;;;;;;;30.75;8.57;;;;;;;;;;5031393;28;20510;-35
2023/08/22 00:24:36;;;;;;;31.40;8.73;;;;;;;;;;5028508;28;20040;-35
2023/08/22 00:27:03;;;;;;;40.38;8.60;;;;;;;;;;5031591;28;20435;-35
2023/08/22 00:29:30;;;;;;;32.78;8.85;;;;;;;;;;5025894;28;20414;-35
2023/08/22 00:31:58;;;;;;;37.80;9.52;;;;;;;;;;5027435;28;20110;-36
2023/08/22 00:34:26;;;;;;;27.77;7.95;;;;;;;;;;5022823;28;20025;-35
2023/08/22 00:36:53;;;;;;;27.08;8.43;;;;;;;;;;5018587;28;20030;-35
2023/08/22 00:39:20;;;;;;;25.92;7.90;;;;;;;;;;5018714;28;20026;-36
2023/08/22 00:41:47;;;;;;;25.02;7.70;;;;;;;;;;5029714;28;20036;-36
2023/08/22 00:44:14;;;;;;;21.73;7.82;;;;;;;;;;5031933;28;20021;-36
2023/08/22 00:46:41;;;;;;;22.10;8.07;;;;;;;;;;5031756;28;20021;-36
2023/08/22 00:49:09;;;;;;;21.50;7.72;;;;;;;;;;5031866;28;20044;-36
2023/08/22 00:51:40;;;;;;;30.20;8.88;;;;;;;;;;5027897;28;20522;-36
2023/08/22 00:54:07;;;;;;;20.30;7.53;;;;;;;;;;5018424;28;20018;-36
2023/08/22 00:56:35;;;;;;;24.55;8.45;;;;;;;;;;5019318;28;20630;-37
2023/08/22 00:59:03;;;;;;;18.50;7.90;;;;;;;;;;5020136;28;20018;-36
2023/08/22 01:01:30;;;;;;;20.50;7.85;;;;;;;;;;5018371;28;20029;-36
2023/08/22 01:03:57;;;;;;;15.70;7.00;;;;;;;;;;5030059;28;20030;-36
2023/08/22 01:06:30;;;;;;;20.45;7.28;;;;;;;;;;5029973;28;20049;-36
2023/08/22 01:09:04;;;;;;;23.60;7.55;;;;;;;;;;5031133;28;20017;-36
2023/08/22 01:11:42;;;;;;;22.90;7.32;;;;;;;;;;5029821;28;20072;-36
2023/08/22 01:14:11;;;;;;;21.33;7.80;;;;;;;;;;5025561;28;20056;-36
2023/08/22 01:16:38;;;;;;;24.13;7.35;;;;;;;;;;5030117;28;20033;-36
2023/08/22 01:19:09;;;;;;;20.23;7.07;;;;;;;;;;5042547;28;20598;-37
2023/08/22 01:21:37;;;;;;;20.05;7.18;;;;;;;;;;5032140;28;20045;-36
2023/08/22 01:24:04;;;;;;;19.80;6.30;;;;;;;;;;5032010;28;20527;-36
2023/08/22 01:26:34;;;;;;;17.55;6.45;;;;;;;;;;5032216;28;20028;-36
2023/08/22 01:29:10;;;;;;;16.77;6.82;;;;;;;;;;5032189;28;20472;-36
2023/08/22 01:32:05;;;;;;;14.98;6.25;;;;;;;;;;5032249;28;20040;-36
2023/08/22 01:34:33;;;;;;;14.13;6.00;;;;;;;;;;5031661;28;20104;-36
2023/08/22 01:37:01;;;;;;;16.92;5.32;;;;;;;;;;5031907;28;20036;-36
2023/08/22 01:39:29;;;;;;;19.30;6.20;;;;;;;;;;5031873;28;20421;-36
2023/08/22 01:41:56;;;;;;;16.23;6.07;;;;;;;;;;5031882;28;20486;-36
2023/08/22 01:44:28;;;;;;;17.48;5.80;;;;;;;;;;5032091;28;20049;-36
2023/08/22 01:46:55;;;;;;;13.75;5.55;;;;;;;;;;5030162;28;20041;-36
2023/08/22 01:49:23;;;;;;;16.00;6.28;;;;;;;;;;5028229;28;20057;-36
2023/08/22 01:51:49;;;;;;;13.82;5.60;;;;;;;;;;5029624;28;20040;-36
2023/08/22 01:54:16;;;;;;;10.80;5.10;;;;;;;;;;5022638;28;20022;-36
2023/08/22 01:56:44;;;;;;;18.83;5.05;;;;;;;;;;5020845;28;20548;-37
2023/08/22 01:59:12;;;;;;;13.82;5.22;;;;;;;;;;5021371;28;20025;-36
2023/08/22 02:01:39;;;;;;;12.38;5.18;;;;;;;;;;5021353;28;20030;-36
2023/08/22 02:04:06;;;;;;;16.95;5.38;;;;;;;;;;5020518;28;20030;-36
2023/08/22 02:06:33;;;;;;;12.13;5.50;;;;;;;;;;5021999;28;20041;-36
2023/08/22 02:09:00;;;;;;;12.57;5.40;;;;;;;;;;5021572;28;20030;-36
2023/08/22 02:11:27;;;;;;;14.13;5.38;;;;;;;;;;5017543;28;20036;-36
2023/08/22 02:13:55;;;;;;;12.10;4.50;;;;;;;;;;5012302;28;20040;-36
2023/08/22 02:16:22;;;;;;;12.48;5.30;;;;;;;;;;5012330;28;20073;-36
2023/08/22 02:18:49;;;;;;;11.35;5.13;;;;;;;;;;5012293;28;20500;-36
2023/08/22 02:21:17;;;;;;;9.98;4.90;;;;;;;;;;5012143;28;20026;-36
2023/08/22 02:23:44;;;;;;;11.43;4.80;;;;;;;;;;5012111;28;20432;-36
2023/08/22 02:26:11;;;;;;;12.38;4.47;;;;;;;;;;5012176;28;20083;-36
2023/08/22 02:28:38;;;;;;;14.60;4.63;;;;;;;;;;5012189;28;20025;-36
2023/08/22 02:31:05;;;;;;;15.07;5.07;;;;;;;;;;5011914;28;20022;-36
2023/08/22 02:33:32;;;;;;;11.82;3.50;;;;;;;;;;5011986;28;20076;-36
2023/08/22 02:35:59;;;;;;;10.65;3.75;;;;;;;;;;5011948;28;20025;-36
2023/08/22 02:38:26;;;;;;;9.90;3.97;;;;;;;;;;5011985;28;20036;-36
2023/08/22 02:40:53;;;;;;;11.90;4.18;;;;;;;;;;5011940;28;20032;-36
2023/08/22 02:43:20;;;;;;;12.30;3.65;;;;;;;;;;5011996;28;20030;-36
2023/08/22 02:45:47;;;;;;;9.45;3.70;;;;;;;;;;5043549;28;20113;-36
2023/08/22 02:48:14;;;;;;;8.35;3.67;;;;;;;;;;5011974;28;20103;-36
2023/08/22 02:50:41;;;;;;;11.68;3.70;;;;;;;;;;5011707;28;20022;-36
2023/08/22 02:53:11;;;;;;;7.15;3.05;;;;;;;;;;5011748;28;20044;-36
2023/08/22 02:55:38;;;;;;;10.52;3.72;;;;;;;;;;5011834;28;20040;-36
2023/08/22 02:58:05;;;;;;;8.52;3.47;;;;;;;;;;5011684;28;20030;-36
2023/08/22 03:00:34;;;;;;;9.40;3.22;;;;;;;;;;5013271;28;20034;-36
2023/08/22 03:03:03;;;;;;;7.25;3.20;;;;;;;;;;5015885;28;20369;-36
2023/08/22 03:05:30;;;;;;;5.57;3.15;;;;;;;;;;5015765;28;20119;-36
2023/08/22 03:07:57;;;;;;;8.55;3.58;;;;;;;;;;5015728;28;20026;-36
2023/08/22 03:10:24;;;;;;;7.72;3.53;;;;;;;;;;5015932;28;20447;-36
2023/08/22 03:12:51;;;;;;;7.55;3.50;;;;;;;;;;5015592;28;20026;-36
2023/08/22 03:15:18;;;;;;;7.30;2.85;;;;;;;;;;5015621;28;20034;-36
2023/08/22 03:17:45;;;;;;;8.25;2.85;;;;;;;;;;5015608;28;20022;-36
2023/08/22 03:20:12;;;;;;;5.55;2.97;;;;;;;;;;5015375;28;20057;-36
2023/08/22 03:22:39;;;;;;;8.07;3.20;;;;;;;;;;5015549;28;20080;-36
2023/08/22 03:25:06;;;;;;;4.80;2.65;;;;;;;;;;5047232;28;20446;-36
2023/08/22 03:27:34;;;;;;;6.85;2.70;;;;;;;;;;5015331;28;20084;-36
2023/08/22 03:30:01;;;;;;;5.18;2.45;;;;;;;;;;5015230;28;20029;-36
2023/08/22 03:32:28;;;;;;;6.82;2.88;;;;;;;;;;5015183;28;20034;-36
2023/08/22 03:34:54;;;;;;;6.25;2.60;;;;;;;;;;5015257;28;20030;-36
2023/08/22 03:37:21;;;;;;;5.00;2.58;;;;;;;;;;5015161;28;20033;-36
2023/08/22 03:39:48;;;;;;;5.88;2.20;;;;;;;;;;5014989;28;20040;-36
2023/08/22 03:42:15;;;;;;;5.28;2.55;;;;;;;;;;5015115;28;20431;-36
2023/08/22 03:44:42;;;;;;;3.75;2.20;;;;;;;;;;5015073;28;20400;-36
2023/08/22 03:47:09;;;;;;;5.82;2.47;;;;;;;;;;5014992;28;20029;-36
2023/08/22 03:49:36;;;;;;;5.25;2.10;;;;;;;;;;5014902;28;20053;-36
2023/08/22 03:52:04;;;;;;;6.13;2.22;;;;;;;;;;5014828;28;20040;-36
2023/08/22 03:54:31;;;;;;;4.55;1.83;;;;;;;;;;5014882;28;20452;-36
2023/08/22 03:56:58;;;;;;;7.93;2.35;;;;;;;;;;5014750;28;20045;-36
2023/08/22 03:59:25;;;;;;;6.15;2.15;;;;;;;;;;5014735;28;20097;-36
2023/08/22 04:01:52;;;;;;;5.03;2.10;;;;;;;;;;5014585;28;20104;-36
2023/08/22 04:04:19;;;;;;;3.28;1.90;;;;;;;;;;5014753;28;20026;-36
2023/08/22 04:06:46;;;;;;;3.55;2.00;;;;;;;;;;5014428;28;20041;-36
2023/08/22 04:09:13;;;;;;;3.40;1.88;;;;;;;;;;5014562;28;20044;-36
2023/08/22 04:11:43;;;;;;;2.33;1.60;;;;;;;;;;5013566;28;20045;-36
2023/08/22 04:14:10;;;;;;;4.22;1.77;;;;;;;;;;5014577;28;20120;-36
2023/08/22 04:16:37;;;;;;;4.75;2.00;;;;;;;;;;5017081;28;20038;-36
2023/08/22 04:19:04;;;;;;;3.38;1.80;;;;;;;;;;5014414;28;20542;-36
2023/08/22 04:21:31;;;;;;;3.17;1.55;;;;;;;;;;5014497;28;20033;-36
2023/08/22 04:23:58;;;;;;;4.63;1.70;;;;;;;;;;5014334;28;20026;-36
2023/08/22 04:26:25;;;;;;;2.90;1.40;;;;;;;;;;5014385;28;20072;-36
2023/08/22 04:28:52;;;;;;;7.75;1.63;;;;;;;;;;5014180;28;20038;-36
2023/08/22 04:31:20;;;;;;;2.03;1.30;;;;;;;;;;5014354;28;20387;-36
2023/08/22 04:33:47;;;;;;;2.78;1.65;;;;;;;;;;5014148;28;20488;-36
2023/08/22 04:36:14;;;;;;;3.42;1.75;;;;;;;;;;5014201;28;20042;-36
2023/08/22 04:38:41;;;;;;;3.92;1.63;;;;;;;;;;5013958;28;20053;-36
2023/08/22 04:41:08;;;;;;;3.15;1.52;;;;;;;;;;5014139;28;20029;-36
2023/08/22 04:43:35;;;;;;;2.70;1.40;;;;;;;;;;5014051;28;20109;-36
2023/08/22 04:46:02;;;;;;;2.55;1.48;;;;;;;;;;5013996;28;20094;-36
2023/08/22 04:48:29;;;;;;;4.93;1.50;;;;;;;;;;5014005;28;20034;-36
2023/08/22 04:50:56;;;;;;;3.67;1.40;;;;;;;;;;5013833;28;20041;-36
2023/08/22 04:53:24;;;;;;;2.33;1.13;;;;;;;;;;5013774;28;20499;-36
2023/08/22 04:55:51;;;;;;;2.83;1.20;;;;;;;;;;5013714;28;20033;-36
2023/08/22 04:58:18;;;;;;;2.30;1.33;;;;;;;;;;5013805;28;20046;-36
2023/08/22 05:00:45;;;;;;;2.50;1.45;;;;;;;;;;5013401;28;20037;-36
2023/08/22 05:03:14;;;;;;;2.35;1.45;;;;;;;;;;5013599;28;20049;-36
2023/08/22 05:05:41;;;;;;;2.55;1.33;;;;;;;;;;5013441;28;20396;-36
2023/08/22 05:08:08;;;;;;;2.20;1.35;;;;;;;;;;5013514;28;20060;-36
2023/08/22 05:10:35;;;;;;;2.10;1.25;;;;;;;;;;5013416;28;20531;-36
2023/08/22 05:13:02;;;;;;;2.72;1.30;;;;;;;;;;5013431;28;20030;-36
2023/08/22 05:15:29;;;;;;;2.28;1.23;;;;;;;;;;5013395;28;20034;-36
2023/08/22 05:17:56;;;;;;;2.90;1.27;;;;;;;;;;5013426;28;20116;-36
2023/08/22 05:20:23;;;;;;;2.00;1.15;;;;;;;;;;5045108;28;20099;-36
2023/08/22 05:22:50;;;;;;;1.73;1.10;;;;;;;;;;5013208;28;20196;-36
2023/08/22 05:25:17;;;;;;;1.77;1.00;;;;;;;;;;5013254;28;20112;-36
2023/08/22 05:27:44;;;;;;;2.08;1.20;;;;;;;;;;5013535;28;20480;-36
2023/08/22 05:30:11;;;;;;;2.72;1.13;;;;;;;;;;5013068;28;20098;-36
2023/08/22 05:32:39;;;;;;;1.25;1.02;;;;;;;;;;5013002;28;20053;-36
2023/08/22 05:35:06;;;;;;;2.13;1.10;;;;;;;;;;5013012;28;20038;-36
2023/08/22 05:37:33;;;;;;;1.40;0.90;;;;;;;;;;5013002;28;20034;-36
2023/08/22 05:40:00;;;;;;;1.83;1.10;;;;;;;;;;5044574;28;20052;-36
2023/08/22 05:42:27;;;;;;;2.60;0.95;;;;;;;;;;5012923;28;20034;-36
2023/08/22 05:44:54;;;;;;;2.75;1.30;;;;;;;;;;5012944;28;20030;-36
2023/08/22 05:47:21;;;;;;;1.42;1.00;;;;;;;;;;5012896;28;20026;-36
2023/08/22 05:49:48;;;;;;;2.90;0.90;;;;;;;;;;5012745;28;20030;-36
2023/08/22 05:52:14;;;;;;;1.58;1.00;;;;;;;;;;5012798;28;20120;-36
2023/08/22 05:54:43;;;;;;;1.67;1.00;;;;;;;;;;5012744;28;20392;-36
2023/08/22 05:57:10;;;;;;;2.15;1.20;;;;;;;;;;5012600;28;20065;-36
2023/08/22 05:59:39;;;;;;;1.88;0.90;;;;;;;;;;5012586;28;20073;-36
2023/08/22 06:02:07;;;;;;;1.42;0.85;;;;;;;;;;5023637;28;20364;-36
2023/08/22 06:04:34;;;;;;;1.65;0.80;;;;;;;;;;5032276;28;20071;-36
2023/08/22 06:07:01;;;;;;;1.15;0.82;;;;;;;;;;5032076;28;20045;-36
2023/08/22 06:09:28;;;;;;;2.20;1.02;;;;;;;;;;5032185;28;20034;-36
2023/08/22 06:11:55;;;;;;;1.25;0.80;;;;;;;;;;5032033;28;20132;-36
2023/08/22 06:14:22;;;;;;;1.52;1.00;;;;;;;;;;5032189;28;20091;-36
2023/08/22 06:16:49;;;;;;;1.83;0.98;;;;;;;;;;5032167;28;20026;-36
2023/08/22 06:19:16;;;;;;;1.73;0.95;;;;;;;;;;5031911;28;20025;-36
2023/08/22 06:21:43;;;;;;;1.77;0.90;;;;;;;;;;5032066;28;20028;-36
2023/08/22 06:24:10;;;;;;;1.50;0.85;;;;;;;;;;5031849;28;20036;-36
2023/08/22 06:26:37;;;;;;;1.73;1.02;;;;;;;;;;5031821;28;20705;-36
2023/08/22 06:29:04;;;;;;;1.55;0.70;;;;;;;;;;5031777;28;20090;-36
2023/08/22 06:31:31;;;;;;;1.38;0.80;;;;;;;;;;5031768;28;20029;-36
2023/08/22 06:33:58;;;;;;;2.33;1.10;;;;;;;;;;5030269;28;20040;-36
2023/08/22 06:36:25;;;;;;;1.73;0.85;;;;;;;;;;5031093;28;20392;-36
2023/08/22 06:38:53;;;;;;;1.75;0.70;;;;;;;;;;5031637;28;20029;-36
2023/08/22 06:41:20;;;;;;;2.53;0.90;;;;;;;;;;5031821;28;20029;-36
2023/08/22 06:43:47;;;;;;;2.65;0.80;;;;;;;;;;5031765;28;20030;-36
2023/08/22 06:46:21;;;;;;;1.85;0.70;;;;;;;;;;5031795;28;20104;-36
2023/08/22 06:48:49;;;;;;;1.85;0.75;;;;;;;;;;5031640;28;20923;-36
2023/08/22 06:51:16;;;;;;;1.75;0.85;;;;;;;;;;5031742;28;20025;-36
2023/08/22 06:53:43;;;;;;;2.20;0.60;;;;;;;;;;5031540;28;20026;-36
2023/08/22 06:56:10;;;;;;;1.58;0.80;;;;;;;;;;5031665;28;20026;-36
2023/08/22 06:58:37;;;;;;;0.95;0.80;;;;;;;;;;5031566;28;20762;-36
2023/08/22 07:01:06;;;;;;;1.50;0.70;;;;;;;;;;5031515;28;20034;-36
2023/08/22 07:03:33;;;;;;;2.80;0.85;;;;;;;;;;5031521;28;20061;-36
2023/08/22 07:06:00;;;;;;;0.93;0.70;;;;;;;;;;5031387;28;20404;-36
2023/08/22 07:08:27;;;;;;;1.25;0.70;;;;;;;;;;5031466;28;20109;-36
2023/08/22 07:11:00;;;;;;;1.10;0.65;;;;;;;;;;5031546;28;20594;-36
2023/08/22 07:13:27;;;;;;;2.03;0.68;;;;;;;;;;5031390;28;20042;-36
2023/08/22 07:15:54;;;;;;;0.93;0.70;;;;;;;;;;5031519;28;20038;-36
2023/08/22 07:18:21;;;;;;;1.73;0.70;;;;;;;;;;5031495;28;20123;-36
2023/08/22 07:20:51;;;;;;;2.67;0.60;;;;;;;;;;5031371;28;20025;-36
2023/08/22 07:23:19;;;;;;;2.72;0.70;;;;;;;;;;5031420;28;20048;-36
2023/08/22 07:25:52;;;;;;;1.13;0.73;;;;;;;;;;5031392;28;20402;-36
2023/08/22 07:28:19;;;;;;;1.98;0.73;;;;;;;;;;5030225;28;20029;-35
2023/08/22 07:30:47;;;;;;;1.77;0.73;;;;;;;;;;5031281;28;20479;-36
2023/08/22 07:33:14;;;;;;;1.40;0.65;;;;;;;;;;5031289;28;20029;-36
2023/08/22 07:35:45;;;;;;;1.35;0.50;;;;;;;;;;5031248;28;20041;-36
2023/08/22 07:38:12;;;;;;;1.00;0.68;;;;;;;;;;5031315;28;20495;-36
2023/08/22 07:40:40;;;;;;;0.88;0.57;;;;;;;;;;5031277;28;20112;-36
2023/08/22 07:43:07;;;;;;;1.08;0.60;;;;;;;;;;5158052;22;20487;-35
2023/08/22 07:45:34;;;;;;;1.10;0.60;;;;;;;;;;5028731;28;20080;-38
2023/08/22 07:48:02;;;;;;;1.10;0.60;;;;;;;;;;5033361;28;20037;-36
2023/08/22 07:50:30;;;;;;;0.90;0.50;;;;;;;;;;5033537;28;20103;-35
2023/08/22 07:52:57;;;;;;;0.80;0.47;;;;;;;;;;5034552;28;20451;-39
2023/08/22 07:55:24;;;;;;;0.88;0.50;;;;;;;;;;5034730;28;20092;-38
2023/08/22 07:57:51;;;;;;;0.98;0.60;;;;;;;;;;5034724;28;20631;-37
2023/08/22 08:00:18;;;;;;;0.70;0.40;;;;;;;;;;5034726;28;20022;-36
2023/08/22 08:02:45;;;;;;;0.73;0.40;;;;;;;;;;5034514;28;20105;-36
2023/08/22 08:05:12;;;;;;;1.77;0.65;;;;;;;;;;5034585;28;20060;-35
2023/08/22 08:07:39;;;;;;;0.73;0.45;;;;;;;;;;5034537;28;20554;-39
2023/08/22 08:10:07;;;;;;;0.70;0.40;;;;;;;;;;5034423;28;20380;-35
2023/08/22 08:12:34;;;;;;;1.55;0.60;;;;;;;;;;5034259;28;20055;-35
2023/08/22 08:15:01;;;;;;;1.05;0.50;;;;;;;;;;5034362;28;20053;-36
2023/08/22 08:17:28;;;;;;;1.38;0.60;;;;;;;;;;5034344;28;20040;-36
2023/08/22 08:19:55;;;;;;;1.05;0.50;;;;;;;;;;5034254;28;20033;-35
2023/08/22 08:22:22;;;;;;;1.75;0.60;;;;;;;;;;5034193;28;20083;-33
2023/08/22 08:24:49;;;;;;;0.93;0.50;;;;;;;;;;5019065;28;20117;-36
2023/08/22 08:27:16;;;;;;;1.52;0.55;;;;;;;;;;5014167;28;20030;-36
2023/08/22 08:29:43;;;;;;;0.65;0.50;;;;;;;;;;5014288;28;20037;-35
2023/08/22 08:32:10;;;;;;;1.27;0.50;;;;;;;;;;5014209;28;20030;-35
2023/08/22 08:34:37;;;;;;;1.08;0.50;;;;;;;;;;5014005;28;20037;-35
2023/08/22 08:37:04;;;;;;;1.30;0.55;;;;;;;;;;5014050;28;20535;-33
2023/08/22 08:39:31;;;;;;;0.80;0.50;;;;;;;;;;5013959;28;20724;-33
2023/08/22 08:42:04;;;;;;;0.98;0.60;;;;;;;;;;5014147;28;20109;-33
2023/08/22 08:44:34;;;;;;;0.50;0.40;;;;;;;;;;5013680;28;20058;-33
2023/08/22 08:47:02;;;;;;;0.60;0.38;;;;;;;;;;5010704;28;20065;-32
2023/08/22 08:49:33;;;;;;;0.98;0.50;;;;;;;;;;5014009;28;20521;-33
2023/08/22 08:52:03;;;;;;;1.08;0.38;;;;;;;;;;5013787;28;20026;-33
2023/08/22 08:54:31;;;;;;;1.05;0.45;;;;;;;;;;5013830;28;20029;-33
2023/08/22 08:56:59;;;;;;;1.08;0.40;;;;;;;;;;5013655;28;20038;-36
2023/08/22 08:59:26;;;;;;;0.77;0.50;;;;;;;;;;5013428;28;20061;-36
2023/08/22 09:01:53;;;;;;;0.52;0.40;;;;;;;;;;5013755;28;20053;-36
2023/08/22 09:04:20;;;;;;;1.05;0.50;;;;;;;;;;5013640;28;20022;-36
2023/08/22 09:06:48;;;;;;;1.25;0.70;;;;;;;;;;5013643;28;20109;-35
2023/08/22 09:09:15;;;;;;;0.63;0.40;;;;;;;;;;5013369;28;20458;-34
2023/08/22 09:11:44;;;;;;;0.52;0.40;;;;;;;;;;5013248;28;20395;-36
2023/08/22 09:14:11;;;;;;;0.80;0.40;;;;;;;;;;5013276;28;20032;-36
2023/08/22 09:16:38;;;;;;;0.77;0.40;;;;;;;;;;5013437;28;20053;-35
2023/08/22 09:19:07;;;;;;;0.68;0.40;;;;;;;;;;5013153;28;20116;-35
2023/08/22 09:21:34;;;;;;;0.70;0.30;;;;;;;;;;5013312;28;20057;-36
2023/08/22 09:24:10;;;;;;;0.65;0.43;;;;;;;;;;5013347;28;20053;-35
2023/08/22 09:26:38;;;;;;;0.82;0.35;;;;;;;;;;5012812;28;20030;-36
2023/08/22 09:29:08;;;;;;;0.90;0.47;;;;;;;;;;5013070;28;20439;-36
2023/08/22 09:31:35;;;;;;;0.30;0.30;;;;;;;;;;5011198;28;20038;-33
2023/08/22 09:34:12;;;;;;;0.88;0.22;;;;;;;;;;5012634;28;20121;-36
2023/08/22 09:36:46;;;;;;;0.77;0.50;;;;;;;;;;5012184;28;20061;-34
2023/08/22 09:39:16;;;;;;;1.48;0.50;;;;;;;;;;5010102;28;20098;-33
2023/08/22 09:41:43;;;;;;;1.27;0.50;;;;;;;;;;5012367;28;20022;-35
2023/08/22 09:44:11;;;;;;;1.67;0.50;;;;;;;;;;5009252;28;20442;-35
2023/08/22 09:46:41;;;;;;;1.15;0.40;;;;;;;;;;5012658;28;20029;-38
2023/08/22 09:49:11;;;;;;;3.17;0.60;;;;;;;;;;5012662;28;20061;-35
2023/08/22 09:51:40;;;;;;;1.40;0.50;;;;;;;;;;5012865;28;20487;-35
2023/08/22 09:54:07;;;;;;;1.15;0.40;;;;;;;;;;5011412;28;20068;-37
2023/08/22 09:56:35;;;;;;;0.82;0.40;;;;;;;;;;5011445;28;20467;-41
2023/08/22 09:59:02;;;;;;;1.75;0.50;;;;;;;;;;5011257;28;20025;-38
2023/08/22 10:01:30;;;;;;;1.00;0.50;;;;;;;;;;5012642;28;20021;-37
2023/08/22 10:03:57;;;;;;;4.40;0.40;;;;;;;;;;5011179;28;20163;-39
2023/08/22 10:06:29;;;;;;;1.02;0.55;;;;;;;;;;5008910;28;20042;-34
2023/08/22 10:08:56;;;;;;;3.17;0.50;;;;;;;;;;5012477;28;20449;-35
2023/08/22 10:11:24;;;;;;;1.40;0.40;;;;;;;;;;5011171;28;20041;-37
2023/08/22 10:13:51;;;;;;;2.92;0.75;;;;;;;;;;5012298;28;20080;-38
2023/08/22 10:16:19;;;;;;;2.47;0.50;;;;;;;;;;5012433;28;20114;-37
2023/08/22 10:18:47;;;;;;;1.33;0.65;;;;;;;;;;5005234;28;20069;-44
2023/08/22 10:21:14;;;;;;;16.50;1.90;;;;;;;;;;5000720;28;20030;-35
2023/08/22 10:23:53;;;;;;;5.53;0.90;;;;;;;;;;5003077;28;20033;-37
2023/08/22 10:26:23;;;;;;;64.60;5.13;;;;;;;;;;4991415;28;20484;-42
2023/08/22 10:29:09;;;;;;;9.65;0.80;;;;;;;;;;4995455;28;20030;-39
2023/08/22 10:31:55;;;;;;;5.53;0.80;;;;;;;;;;5008176;28;20041;-39
2023/08/22 10:34:22;;;;;;;4.05;0.60;;;;;;;;;;5009240;28;20061;-39
2023/08/22 10:36:59;;;;;;;10.05;0.93;;;;;;;;;;5010699;28;20076;-39
2023/08/22 10:39:43;;;;;;;6.28;0.75;;;;;;;;;;5006540;28;20029;-42
2023/08/22 10:42:18;;;;;;;7.50;1.23;;;;;;;;;;5010596;28;20133;-41
2023/08/22 10:44:52;;;;;;;3.10;0.70;;;;;;;;;;5011704;28;20535;-38
2023/08/22 10:47:20;;;;;;;5.75;0.77;;;;;;;;;;5011779;28;20026;-49
2023/08/22 10:49:51;;;;;;;8.93;0.80;;;;;;;;;;5011008;28;20383;-48
2023/08/22 10:52:18;;;;;;;4.40;0.82;;;;;;;;;;5005726;28;20030;-49
2023/08/22 10:55:01;;;;;;;8.43;0.82;;;;;;;;;;5011708;28;20034;-49
2023/08/22 10:57:29;;;;;;;4.03;0.55;;;;;;;;;;5011748;28;20026;-47
2023/08/22 11:00:12;;;;;;;2.92;0.70;;;;;;;;;;5011805;28;20022;-49
2023/08/22 11:02:40;;;;;;;3.22;0.60;;;;;;;;;;5008509;28;20034;-49
2023/08/22 11:05:11;;;;;;;3.60;0.65;;;;;;;;;;5010653;28;20080;-47
2023/08/22 11:07:41;;;;;;;1.75;0.60;;;;;;;;;;5011842;28;20098;-49
2023/08/22 11:10:15;;;;;;;3.13;0.70;;;;;;;;;;5010593;28;20058;-47
2023/08/22 11:12:46;;;;;;;6.47;1.10;;;;;;;;;;5010498;28;20049;-44
2023/08/22 11:15:15;;;;;;;5.47;1.00;;;;;;;;;;5006828;28;20057;-36
2023/08/22 11:17:43;;;;;;;17.75;1.08;;;;;;;;;;5011196;28;20034;-35
2023/08/22 11:20:28;;;;;;;11.85;1.33;;;;;;;;;;5010896;28;20044;-38
2023/08/22 11:22:55;;;;;;;33.10;1.80;;;;;;;;;;5015112;28;20026;-36
2023/08/22 11:25:23;;;;;;;18.40;1.35;;;;;;;;;;5015398;28;20458;-35
2023/08/22 11:27:50;;;;;;;16.88;1.42;;;;;;;;;;5015392;28;20025;-35
2023/08/22 11:30:18;;;;;;;9.65;1.60;;;;;;;;;;5015304;28;20097;-36
2023/08/22 11:32:45;;;;;;;19.58;2.25;;;;;;;;;;5015060;28;20036;-35
2023/08/22 11:35:12;;;;;;;35.50;2.85;;;;;;;;;;5015247;28;20057;-35
2023/08/22 11:37:40;;;;;;;16.33;2.45;;;;;;;;;;5015218;28;20483;-35
2023/08/22 11:40:14;;;;;;;330.90;22.85;;;;;;;;;;5015138;28;20041;-37
2023/08/22 11:42:41;;;;;;;182.63;13.63;;;;;;;;;;5014874;28;20468;-39
2023/08/22 11:45:10;;;;;;;90.88;7.38;;;;;;;;;;5015093;28;20087;-38
2023/08/22 11:47:37;;;;;;;67.90;4.50;;;;;;;;;;5015028;28;20036;-38
2023/08/22 11:50:07;;;;;;;57.92;5.32;;;;;;;;;;5015039;28;20026;-38
2023/08/22 11:52:35;;;;;;;50.20;5.97;;;;;;;;;;5014776;28;20030;-34
2023/08/22 11:55:06;;;;;;;56.13;5.72;;;;;;;;;;5014748;28;20403;-35
2023/08/22 11:57:38;;;;;;;27.80;4.05;;;;;;;;;;5014715;28;20483;-35
2023/08/22 12:00:08;;;;;;;44.20;5.18;;;;;;;;;;5014822;28;20030;-36
2023/08/22 12:02:35;;;;;;;41.90;4.68;;;;;;;;;;5014593;28;20033;-37
2023/08/22 12:05:02;;;;;;;102.85;7.95;;;;;;;;;;5014580;28;20518;-35
2023/08/22 12:07:29;;;;;;;97.32;9.00;;;;;;;;;;5014616;28;20076;-35
2023/08/22 12:09:59;;;;;;;82.68;7.10;;;;;;;;;;5014538;28;20108;-33
2023/08/22 12:12:27;;;;;;;74.07;6.68;;;;;;;;;;5014347;28;20076;-33
2023/08/22 12:14:54;;;;;;;87.80;8.73;;;;;;;;;;5014497;28;20033;-33
2023/08/22 12:17:21;;;;;;;92.75;9.35;;;;;;;;;;5014494;28;20041;-32
2023/08/22 12:19:48;;;;;;;90.60;9.30;;;;;;;;;;5014430;28;20093;-33
2023/08/22 12:22:15;;;;;;;96.30;9.77;;;;;;;;;;5014140;28;20056;-33
2023/08/22 12:24:44;;;;;;;84.80;8.80;;;;;;;;;;5014332;28;20033;-33
2023/08/22 12:27:12;;;;;;;81.03;9.23;;;;;;;;;;5014231;28;20072;-33
2023/08/22 12:29:40;;;;;;;77.50;8.38;;;;;;;;;;5014219;28;20053;-33
2023/08/22 12:32:07;;;;;;;70.32;8.80;;;;;;;;;;5013821;28;20117;-33
2023/08/22 12:34:34;;;;;;;70.65;8.65;;;;;;;;;;5013501;28;20058;-33
2023/08/22 12:37:01;;;;;;;73.75;8.77;;;;;;;;;;5014069;28;20018;-32
2023/08/22 12:39:28;;;;;;;84.38;8.82;;;;;;;;;;5014082;28;20049;-33
2023/08/22 12:41:55;;;;;;;88.78;8.93;;;;;;;;;;5013957;28;20029;-33
2023/08/22 12:44:22;;;;;;;62.45;8.50;;;;;;;;;;5013762;28;20084;-33
2023/08/22 12:46:49;;;;;;;79.57;9.43;;;;;;;;;;5013843;28;20067;-33
2023/08/22 12:49:16;;;;;;;52.28;9.20;;;;;;;;;;5013880;28;20032;-33
2023/08/22 12:51:43;;;;;;;72.63;8.68;;;;;;;;;;5013164;28;20030;-33
2023/08/22 12:54:10;;;;;;;69.40;8.43;;;;;;;;;;5012924;28;20129;-34
2023/08/22 12:56:36;;;;;;;57.15;7.93;;;;;;;;;;5012949;28;20029;-33
2023/08/22 12:59:03;;;;;;;69.60;8.80;;;;;;;;;;5013047;28;20065;-33
2023/08/22 13:01:30;;;;;;;68.45;8.45;;;;;;;;;;5012991;28;20030;-35
2023/08/22 13:03:58;;;;;;;55.55;7.43;;;;;;;;;;5012686;28;20113;-36
2023/08/22 13:06:26;;;;;;;57.83;8.93;;;;;;;;;;5012942;28;20116;-36
2023/08/22 13:08:54;;;;;;;60.70;8.18;;;;;;;;;;5010261;28;20038;-34
2023/08/22 13:11:21;;;;;;;63.92;7.57;;;;;;;;;;5012712;28;20507;-33
2023/08/22 13:13:48;;;;;;;64.70;7.93;;;;;;;;;;5012675;28;20491;-32
2023/08/22 13:16:15;;;;;;;59.08;7.78;;;;;;;;;;5012258;28;20087;-36
2023/08/22 13:18:43;;;;;;;60.17;7.90;;;;;;;;;;5013477;28;20026;-35
2023/08/22 13:21:10;;;;;;;56.42;7.15;;;;;;;;;;5013301;28;20058;-35
2023/08/22 13:23:37;;;;;;;54.63;7.25;;;;;;;;;;5013158;28;20387;-35
2023/08/22 13:26:04;;;;;;;45.38;6.47;;;;;;;;;;5013219;28;20471;-35
2023/08/22 13:28:31;;;;;;;51.08;6.50;;;;;;;;;;5013250;28;20048;-35
2023/08/22 13:30:58;;;;;;;45.95;5.95;;;;;;;;;;5013113;28;20054;-35
2023/08/22 13:33:25;;;;;;;41.63;5.90;;;;;;;;;;5012829;28;20026;-35
2023/08/22 13:35:52;;;;;;;44.42;6.90;;;;;;;;;;5012953;28;20045;-35
2023/08/22 13:38:19;;;;;;;43.78;5.53;;;;;;;;;;5013004;28;20033;-35
2023/08/22 13:40:46;;;;;;;39.53;5.90;;;;;;;;;;5012132;28;20029;-35
2023/08/22 13:43:13;;;;;;;30.02;5.28;;;;;;;;;;5011964;28;20060;-36
2023/08/22 13:45:40;;;;;;;30.17;5.32;;;;;;;;;;5012601;28;20388;-35
2023/08/22 13:48:07;;;;;;;44.20;6.10;;;;;;;;;;5011500;28;20044;-32
2023/08/22 13:50:34;;;;;;;40.88;5.70;;;;;;;;;;5011571;28;20029;-33
2023/08/22 13:53:01;;;;;;;29.80;5.30;;;;;;;;;;5011805;28;20092;-33
2023/08/22 13:55:28;;;;;;;24.98;4.20;;;;;;;;;;5012022;28;20033;-33
2023/08/22 13:57:56;;;;;;;33.60;4.78;;;;;;;;;;5011922;28;20088;-33
2023/08/22 14:00:23;;;;;;;39.28;5.40;;;;;;;;;;5011914;28;20030;-34
2023/08/22 14:02:50;;;;;;;31.13;4.45;;;;;;;;;;5010739;28;20554;-35
2023/08/22 14:05:17;;;;;;;36.33;4.65;;;;;;;;;;5011060;28;20041;-33
2023/08/22 14:07:44;;;;;;;34.30;5.15;;;;;;;;;;5008810;28;20064;-35
2023/08/22 14:10:11;;;;;;;27.63;4.30;;;;;;;;;;5012067;28;20025;-35
2023/08/22 14:12:38;;;;;;;27.63;4.65;;;;;;;;;;5011787;28;20479;-33
2023/08/22 14:15:06;;;;;;;28.38;3.15;;;;;;;;;;5011824;28;20037;-35
2023/08/22 14:17:33;;;;;;;26.73;3.17;;;;;;;;;;5009270;28;20034;-34
2023/08/22 14:20:00;;;;;;;28.00;2.47;;;;;;;;;;5011787;28;20042;-37
2023/08/22 14:22:27;;;;;;;23.80;3.15;;;;;;;;;;5012098;28;20033;-35
2023/08/22 14:24:54;;;;;;;31.15;2.80;;;;;;;;;;5011979;28;20076;-35
2023/08/22 14:27:21;;;;;;;16.50;2.83;;;;;;;;;;5011506;28;20439;-37
2023/08/22 14:29:48;;;;;;;22.25;3.22;;;;;;;;;;5012099;28;20080;-35
2023/08/22 14:32:15;;;;;;;23.33;3.17;;;;;;;;;;5009314;28;20037;-35
2023/08/22 14:34:42;;;;;;;21.60;3.22;;;;;;;;;;5010820;28;20153;-35
2023/08/22 14:37:09;;;;;;;23.45;3.30;;;;;;;;;;5011509;28;20022;-33
2023/08/22 14:39:36;;;;;;;20.60;3.38;;;;;;;;;;5011248;28;20029;-34
2023/08/22 14:42:04;;;;;;;19.75;3.08;;;;;;;;;;5010660;28;20033;-33